createdAt,value
2019-04-27T00:01:55.533Z,8.80
2019-04-27T00:04:48.682Z,8.80
2019-04-27T00:07:21.210Z,8.80
2019-04-27T00:10:13.559Z,8.80
2019-04-27T00:12:44.038Z,8.80
2019-04-27T00:15:37.915Z,8.70
2019-04-27T00:18:13.952Z,8.70
2019-04-27T00:20:54.846Z,8.70
2019-04-27T00:23:31.084Z,8.80
2019-04-27T00:25:59.763Z,8.80
2019-04-27T00:28:33.219Z,8.80
2019-04-27T00:31:05.027Z,8.80
2019-04-27T00:33:36.820Z,8.80
2019-04-27T00:36:07.009Z,8.80
2019-04-27T00:38:37.309Z,8.70
2019-04-27T00:41:15.541Z,8.70
2019-04-27T00:43:45.783Z,8.70
2019-04-27T00:46:14.263Z,8.70
2019-04-27T00:48:53.416Z,8.80
2019-04-27T00:51:23.191Z,8.70
2019-04-27T00:53:55.059Z,8.70
2019-04-27T00:56:46.734Z,8.60
2019-04-27T00:59:24.067Z,8.60
2019-04-27T01:02:00.095Z,8.60
2019-04-27T01:04:35.879Z,8.50
2019-04-27T01:07:25.349Z,8.50
2019-04-27T01:09:54.035Z,8.50
2019-04-27T01:12:28.668Z,8.40
2019-04-27T01:15:06.010Z,8.40
2019-04-27T01:17:33.771Z,8.40
2019-04-27T01:20:05.807Z,8.30
2019-04-27T01:22:39.521Z,8.30
2019-04-27T01:25:08.853Z,8.30
2019-04-27T01:27:49.427Z,8.30
2019-04-27T01:30:21.296Z,8.30
2019-04-27T01:32:59.574Z,8.20
2019-04-27T01:35:28.868Z,8.20
2019-04-27T01:38:00.507Z,8.20
2019-04-27T01:40:30.651Z,8.20
2019-04-27T01:42:59.336Z,8.10
2019-04-27T01:45:36.268Z,8.20
2019-04-27T01:48:06.467Z,8.10
2019-04-27T01:50:39.285Z,8.10
2019-04-27T01:53:31.512Z,8.10
2019-04-27T01:56:09.225Z,8.10
2019-04-27T01:58:39.571Z,8.10
2019-04-27T02:01:30.691Z,8.00
2019-04-27T02:04:12.483Z,8.00
2019-04-27T02:06:49.074Z,8.00
2019-04-27T02:09:23.604Z,8.00
2019-04-27T02:11:52.343Z,8.00
2019-04-27T02:14:21.027Z,8.00
2019-04-27T02:16:52.270Z,8.00
2019-04-27T02:19:29.212Z,8.00
2019-04-27T02:22:02.849Z,8.00
2019-04-27T02:24:41.983Z,8.00
2019-04-27T02:27:16.464Z,7.90
2019-04-27T02:29:46.839Z,8.00
2019-04-27T02:33:00.148Z,7.90
2019-04-27T02:35:30.896Z,7.90
2019-04-27T02:38:03.878Z,7.90
2019-04-27T02:40:52.415Z,7.90
2019-04-27T02:43:29.733Z,7.90
2019-04-27T02:46:00.207Z,7.90
2019-04-27T02:48:34.457Z,7.90
2019-04-27T02:53:56.723Z,7.80
2019-04-27T02:56:32.930Z,7.80
2019-04-27T02:59:06.141Z,7.80
2019-04-27T03:02:11.203Z,7.80
2019-04-27T03:04:42.749Z,7.70
2019-04-27T03:07:14.518Z,7.70
2019-04-27T03:09:50.600Z,7.70
2019-04-27T03:12:21.944Z,7.70
2019-04-27T03:14:59.437Z,7.60
2019-04-27T03:17:39.360Z,7.50
2019-04-27T03:20:13.562Z,7.50
2019-04-27T03:22:43.893Z,7.40
2019-04-27T03:28:16.493Z,7.30
2019-04-27T03:30:45.480Z,7.30
2019-04-27T03:33:17.144Z,7.30
2019-04-27T03:35:52.566Z,7.30
2019-04-27T03:38:29.902Z,7.30
2019-04-27T03:41:04.443Z,7.30
2019-04-27T03:43:33.073Z,7.20
2019-04-27T03:46:10.133Z,7.30
2019-04-27T03:48:40.441Z,7.20
2019-04-27T03:51:24.709Z,7.30
2019-04-27T03:56:40.221Z,7.20
2019-04-27T04:01:58.928Z,7.20
2019-04-27T04:04:32.687Z,7.20
2019-04-27T04:07:13.056Z,7.20
2019-04-27T04:09:44.246Z,7.20
2019-04-27T04:12:32.855Z,7.20
2019-04-27T04:15:00.841Z,7.20
2019-04-27T04:17:31.268Z,7.20
2019-04-27T04:20:01.934Z,7.20
2019-04-27T04:22:32.318Z,7.20
2019-04-27T04:25:00.919Z,7.30
2019-04-27T04:27:33.975Z,7.30
2019-04-27T04:30:05.830Z,7.30
2019-04-27T04:32:39.587Z,7.30
2019-04-27T04:35:24.191Z,7.30
2019-04-27T04:38:01.794Z,7.30
2019-04-27T04:40:43.426Z,7.30
2019-04-27T04:43:20.986Z,7.30
2019-04-27T04:45:56.696Z,7.30
2019-04-27T04:48:30.434Z,7.30
2019-04-27T04:51:10.446Z,7.30
2019-04-27T04:53:41.104Z,7.30
2019-04-27T04:56:13.354Z,7.30
2019-04-27T04:58:51.191Z,7.30
2019-04-27T05:01:22.519Z,7.30
2019-04-27T05:03:52.646Z,7.30
2019-04-27T05:06:25.493Z,7.30
2019-04-27T05:08:55.712Z,7.30
2019-04-27T05:11:49.307Z,7.40
2019-04-27T05:14:19.788Z,7.40
2019-04-27T05:16:48.904Z,7.40
2019-04-27T05:19:21.992Z,7.50
2019-04-27T05:21:52.365Z,7.50
2019-04-27T05:24:23.021Z,7.60
2019-04-27T05:26:54.786Z,7.60
2019-04-27T05:29:32.534Z,7.60
2019-04-27T05:32:09.153Z,7.70
2019-04-27T05:34:44.566Z,7.70
2019-04-27T05:37:15.276Z,7.80
2019-04-27T05:39:45.703Z,7.80
2019-04-27T05:42:17.564Z,7.90
2019-04-27T05:45:22.809Z,7.90
2019-04-27T05:48:00.717Z,8.00
2019-04-27T05:50:37.643Z,8.00
2019-04-27T05:53:10.264Z,8.00
2019-04-27T05:55:44.885Z,8.00
2019-04-27T05:58:23.363Z,8.20
2019-04-27T06:00:53.467Z,8.20
2019-04-27T06:03:26.914Z,8.20
2019-04-27T06:05:53.803Z,8.40
2019-04-27T06:08:30.738Z,8.40
2019-04-27T06:11:04.260Z,8.40
2019-04-27T06:13:36.694Z,8.40
2019-04-27T06:16:09.342Z,8.40
2019-04-27T06:18:39.619Z,8.40
2019-04-27T06:21:12.514Z,8.40
2019-04-27T06:23:41.058Z,8.50
2019-04-27T06:26:13.996Z,8.50
2019-04-27T06:28:53.443Z,8.50
2019-04-27T06:31:23.522Z,8.60
2019-04-27T06:33:53.788Z,8.70
2019-04-27T06:36:22.648Z,8.80
2019-04-27T06:38:53.734Z,8.90
2019-04-27T06:41:23.890Z,8.90
2019-04-27T06:44:13.134Z,8.90
2019-04-27T06:46:48.983Z,9.00
2019-04-27T06:49:47.207Z,9.00
2019-04-27T06:52:23.500Z,9.10
2019-04-27T06:54:56.124Z,9.10
2019-04-27T06:57:39.402Z,9.00
2019-04-27T07:00:13.775Z,9.10
2019-04-27T07:02:46.582Z,9.10
2019-04-27T07:05:16.715Z,9.20
2019-04-27T07:07:45.258Z,9.30
2019-04-27T07:10:15.824Z,9.50
2019-04-27T07:12:49.824Z,9.50
2019-04-27T07:15:20.059Z,9.60
2019-04-27T07:17:48.780Z,9.70
2019-04-27T07:20:21.515Z,9.80
2019-04-27T07:22:49.987Z,10.30
2019-04-27T07:25:23.762Z,10.90
2019-04-27T07:27:54.187Z,11.20
2019-04-27T07:30:28.720Z,11.00
2019-04-27T07:33:00.979Z,11.30
2019-04-27T07:35:33.316Z,11.40
2019-04-27T07:38:07.802Z,11.40
2019-04-27T07:40:41.782Z,11.60
2019-04-27T07:43:11.285Z,11.60
2019-04-27T07:45:41.850Z,11.80
2019-04-27T07:48:14.698Z,12.00
2019-04-27T07:50:45.126Z,12.00
2019-04-27T07:53:16.607Z,12.10
2019-04-27T07:55:50.998Z,12.80
2019-04-27T07:58:31.364Z,13.40
2019-04-27T08:01:00.086Z,13.90
2019-04-27T08:03:36.146Z,14.40
2019-04-27T08:06:04.743Z,14.50
2019-04-27T08:08:33.287Z,14.80
2019-04-27T08:11:06.394Z,15.10
2019-04-27T08:13:33.309Z,15.40
2019-04-27T08:16:10.171Z,15.80
2019-04-27T08:18:44.322Z,16.20
2019-04-27T08:21:14.316Z,16.00
2019-04-27T08:23:48.963Z,15.70
2019-04-27T08:26:20.118Z,16.00
2019-04-27T08:28:58.638Z,16.30
2019-04-27T08:31:31.335Z,16.40
2019-04-27T08:34:04.770Z,16.30
2019-04-27T08:36:36.053Z,16.20
2019-04-27T08:39:13.394Z,16.30
2019-04-27T08:41:46.355Z,16.20
2019-04-27T08:44:14.875Z,16.30
2019-04-27T08:46:46.744Z,16.10
2019-04-27T08:49:21.021Z,16.10
2019-04-27T08:52:01.662Z,16.20
2019-04-27T08:54:29.691Z,16.00
2019-04-27T09:00:01.108Z,16.30
2019-04-27T09:02:44.666Z,16.40
2019-04-27T09:05:06.324Z,16.30
2019-04-27T09:07:36.522Z,16.10
2019-04-27T09:10:13.512Z,15.90
2019-04-27T09:12:49.436Z,15.50
2019-04-27T09:15:35.068Z,15.20
2019-04-27T09:18:08.811Z,15.20
2019-04-27T09:20:49.217Z,15.10
2019-04-27T09:23:22.482Z,14.70
2019-04-27T09:25:51.483Z,14.60
2019-04-27T09:28:23.132Z,14.60
2019-04-27T09:31:29.519Z,14.60
2019-04-27T09:33:51.502Z,14.70
2019-04-27T09:36:22.251Z,14.80
2019-04-27T09:39:08.480Z,15.10
2019-04-27T09:41:36.858Z,15.60
2019-04-27T09:44:16.135Z,15.80
2019-04-27T09:46:52.443Z,15.70
2019-04-27T09:49:18.336Z,15.80
2019-04-27T09:51:48.080Z,15.90
2019-04-27T09:54:19.748Z,16.00
2019-04-27T09:56:50.915Z,15.90
2019-04-27T10:02:17.679Z,15.30
2019-04-27T10:04:58.224Z,14.90
2019-04-27T10:07:26.908Z,14.70
2019-04-27T10:10:06.447Z,14.40
2019-04-27T10:12:38.355Z,14.20
2019-04-27T10:15:07.810Z,14.20
2019-04-27T10:17:41.306Z,14.20
2019-04-27T10:20:16.832Z,14.40
2019-04-27T10:22:56.413Z,14.40
2019-04-27T10:25:29.798Z,14.50
2019-04-27T10:28:06.709Z,14.70
2019-04-27T10:30:45.875Z,14.90
2019-04-27T10:33:28.309Z,14.70
2019-04-27T10:35:56.545Z,14.50
2019-04-27T10:38:36.534Z,14.30
2019-04-27T10:41:17.307Z,14.00
2019-04-27T10:43:52.038Z,13.70
2019-04-27T10:46:25.818Z,13.40
2019-04-27T10:48:56.186Z,13.30
2019-04-27T10:51:33.929Z,13.30
2019-04-27T10:54:08.127Z,13.10
2019-04-27T10:56:42.187Z,13.00
2019-04-27T10:59:29.490Z,12.80
2019-04-27T11:02:01.612Z,12.60
2019-04-27T11:07:52.659Z,12.50
2019-04-27T11:10:26.045Z,12.30
2019-04-27T11:12:56.069Z,12.20
2019-04-27T11:15:26.892Z,12.00
2019-04-27T11:17:59.182Z,11.80
2019-04-27T11:20:36.264Z,11.80
2019-04-27T11:23:12.377Z,12.00
2019-04-27T11:25:46.846Z,12.40
2019-04-27T11:28:16.748Z,12.70
2019-04-27T11:30:45.972Z,13.00
2019-04-27T11:33:16.615Z,13.20
2019-04-27T11:35:51.943Z,13.60
2019-04-27T11:38:22.342Z,13.90
2019-04-27T11:40:59.396Z,14.20
2019-04-27T11:43:31.166Z,14.40
2019-04-27T11:45:59.780Z,14.50
2019-04-27T11:48:33.467Z,14.40
2019-04-27T11:51:06.970Z,14.10
2019-04-27T11:54:01.184Z,13.80
2019-04-27T11:56:13.477Z,13.30
2019-04-27T12:01:38.527Z,12.30
2019-04-27T12:04:12.744Z,11.90
2019-04-27T12:06:46.243Z,11.70
2019-04-27T12:09:22.924Z,11.70
2019-04-27T12:11:50.421Z,11.80
2019-04-27T12:14:20.622Z,11.80
2019-04-27T12:17:13.747Z,12.00
2019-04-27T12:19:42.679Z,12.10
2019-04-27T12:22:16.384Z,12.10
2019-04-27T12:25:02.228Z,12.10
2019-04-27T12:27:39.693Z,12.00
2019-04-27T12:36:27.515Z,11.70
2019-04-27T12:39:12.484Z,11.70
2019-04-27T12:41:43.100Z,11.70
2019-04-27T12:47:18.499Z,11.70
2019-04-27T12:49:57.975Z,11.80
2019-04-27T12:52:36.094Z,11.80
2019-04-27T12:55:39.655Z,11.80
2019-04-27T12:58:14.080Z,11.80
2019-04-27T13:07:31.921Z,11.80
2019-04-27T13:10:10.679Z,11.80
2019-04-27T13:12:48.560Z,11.80
2019-04-27T13:18:13.697Z,11.80
2019-04-27T13:20:45.691Z,11.90
2019-04-27T13:23:17.106Z,11.90
2019-04-27T13:25:57.148Z,12.00
2019-04-27T13:28:43.833Z,12.00
2019-04-27T13:34:02.781Z,12.00
2019-04-27T13:42:33.673Z,12.00
2019-04-27T13:45:10.450Z,12.10
2019-04-27T13:48:21.603Z,12.40
2019-04-27T13:51:35.918Z,12.40
2019-04-27T13:54:23.695Z,12.50
2019-04-27T13:56:51.573Z,12.50
2019-04-27T13:59:38.238Z,12.30
2019-04-27T14:02:13.242Z,12.20
2019-04-27T14:04:46.212Z,12.10
2019-04-27T14:07:18.707Z,11.90
2019-04-27T14:09:48.609Z,11.90
2019-04-27T14:12:21.322Z,12.00
2019-04-27T14:14:59.101Z,11.90
2019-04-27T14:17:29.589Z,11.90
2019-04-27T14:20:10.323Z,11.90
2019-04-27T14:22:42.168Z,11.90
2019-04-27T14:25:13.589Z,11.90
2019-04-27T14:27:54.795Z,12.00
2019-04-27T14:30:23.871Z,12.00
2019-04-27T14:32:55.487Z,12.00
2019-04-27T14:35:40.366Z,11.90
2019-04-27T14:38:11.631Z,11.90
2019-04-27T14:40:50.326Z,11.70
2019-04-27T14:43:26.224Z,11.60
2019-04-27T14:45:54.732Z,11.40
2019-04-27T14:48:23.591Z,11.30
2019-04-27T14:50:55.133Z,11.10
2019-04-27T14:53:34.339Z,11.00
2019-04-27T14:56:14.171Z,10.80
2019-04-27T14:59:03.501Z,9.90
2019-04-27T15:01:42.381Z,9.30
2019-04-27T15:04:19.456Z,8.90
2019-04-27T15:06:50.147Z,8.70
2019-04-27T15:09:21.479Z,8.50
2019-04-27T15:11:53.467Z,8.40
2019-04-27T15:14:23.965Z,8.40
2019-04-27T15:16:57.085Z,8.40
2019-04-27T15:19:33.721Z,8.40
2019-04-27T15:22:04.515Z,8.50
2019-04-27T15:24:36.138Z,8.50
2019-04-27T15:27:08.173Z,8.60
2019-04-27T15:29:44.179Z,8.60
2019-04-27T15:32:23.569Z,8.60
2019-04-27T15:35:05.091Z,8.60
2019-04-27T15:38:04.778Z,8.60
2019-04-27T15:43:27.334Z,8.60
2019-04-27T15:46:10.155Z,8.60
2019-04-27T15:48:41.286Z,8.70
2019-04-27T15:51:24.060Z,8.70
2019-04-27T15:53:53.904Z,8.80
2019-04-27T15:56:22.783Z,8.80
2019-04-27T15:58:55.737Z,9.00
2019-04-27T16:01:24.812Z,9.10
2019-04-27T16:03:58.251Z,9.10
2019-04-27T16:06:38.376Z,9.10
2019-04-27T16:09:16.109Z,9.10
2019-04-27T16:11:57.778Z,9.00
2019-04-27T16:14:28.798Z,9.10
2019-04-27T16:17:03.077Z,9.10
2019-04-27T16:19:40.211Z,9.10
2019-04-27T16:22:04.586Z,9.10
2019-04-27T16:24:39.135Z,9.10
2019-04-27T16:27:09.796Z,9.10
2019-04-27T16:29:38.990Z,9.10
2019-04-27T16:32:11.328Z,9.10
2019-04-27T16:34:43.360Z,9.10
2019-04-27T16:37:22.596Z,9.10
2019-04-27T16:39:53.973Z,9.10
2019-04-27T16:42:31.312Z,9.10
2019-04-27T16:44:59.815Z,8.90
2019-04-27T16:47:34.607Z,8.80
2019-04-27T16:50:04.723Z,8.80
2019-04-27T16:52:34.901Z,8.90
2019-04-27T16:55:12.359Z,8.90
2019-04-27T16:57:50.326Z,8.90
2019-04-27T17:00:30.232Z,8.90
2019-04-27T17:03:06.739Z,8.90
2019-04-27T17:05:38.302Z,9.10
2019-04-27T17:08:22.437Z,9.00
2019-04-27T17:13:30.639Z,9.20
2019-04-27T17:16:19.136Z,9.30
2019-04-27T17:18:57.766Z,9.40
2019-04-27T17:21:33.393Z,9.50
2019-04-27T17:24:04.715Z,9.40
2019-04-27T17:26:43.702Z,9.40
2019-04-27T17:29:20.528Z,9.40
2019-04-27T17:31:56.639Z,9.30
2019-04-27T17:34:25.306Z,9.40
2019-04-27T17:36:54.809Z,9.40
2019-04-27T17:39:29.851Z,9.40
2019-04-27T17:42:00.736Z,9.40
2019-04-27T17:44:31.920Z,9.40
2019-04-27T17:47:00.458Z,9.40
2019-04-27T17:49:33.103Z,9.40
2019-04-27T17:52:23.059Z,9.30
2019-04-27T17:54:58.991Z,9.20
2019-04-27T17:57:30.181Z,9.10
2019-04-27T18:00:09.379Z,9.00
2019-04-27T18:02:42.434Z,9.00
2019-04-27T18:05:09.482Z,9.00
2019-04-27T18:07:46.425Z,8.90
2019-04-27T18:10:21.837Z,8.80
2019-04-27T18:12:48.533Z,8.80
2019-04-27T18:15:20.552Z,8.70
2019-04-27T18:17:52.139Z,8.70
2019-04-27T18:20:24.251Z,8.70
2019-04-27T18:22:54.474Z,8.70
2019-04-27T18:25:30.447Z,8.70
2019-04-27T18:28:14.869Z,8.70
2019-04-27T18:30:57.089Z,8.60
2019-04-27T18:33:32.545Z,8.40
2019-04-27T18:36:13.785Z,8.40
2019-04-27T18:38:39.075Z,8.40
2019-04-27T18:41:11.796Z,8.40
2019-04-27T18:43:50.773Z,8.40
2019-04-27T18:46:24.433Z,8.30
2019-04-27T18:48:53.853Z,8.20
2019-04-27T18:51:34.520Z,8.20
2019-04-27T18:54:05.226Z,8.10
2019-04-27T18:56:38.444Z,8.00
2019-04-27T18:59:08.502Z,7.90
2019-04-27T19:01:40.188Z,7.90
2019-04-27T19:04:10.360Z,7.90
2019-04-27T19:06:42.456Z,7.90
2019-04-27T19:11:57.031Z,8.00
2019-04-27T19:14:28.288Z,7.90
2019-04-27T19:17:03.076Z,8.00
2019-04-27T19:19:39.863Z,7.90
2019-04-27T19:22:11.554Z,7.90
2019-04-27T19:24:44.273Z,7.90
2019-04-27T19:27:20.524Z,7.90
2019-04-27T19:30:11.819Z,7.90
2019-04-27T19:32:43.597Z,7.90
2019-04-27T19:38:19.667Z,7.80
2019-04-27T19:40:53.765Z,7.80
2019-04-27T19:43:30.155Z,7.80
2019-04-27T19:46:02.065Z,7.80
2019-04-27T19:48:41.206Z,7.80
2019-04-27T19:51:18.727Z,7.60
2019-04-27T19:53:48.660Z,7.50
2019-04-27T19:56:28.323Z,7.60
2019-04-27T19:59:08.946Z,7.60
2019-04-27T20:01:49.901Z,7.50
2019-04-27T20:04:21.639Z,7.60
2019-04-27T20:06:52.956Z,7.50
2019-04-27T20:09:28.960Z,7.50
2019-04-27T20:11:57.702Z,7.50
2019-04-27T20:14:27.816Z,7.50
2019-04-27T20:16:59.552Z,7.50
2019-04-27T20:19:31.475Z,7.50
2019-04-27T20:22:03.498Z,7.60
2019-04-27T20:24:35.218Z,7.70
2019-04-27T20:27:05.856Z,7.70
2019-04-27T20:29:34.422Z,7.70
2019-04-27T20:32:09.110Z,7.80
2019-04-27T20:34:41.136Z,7.80
2019-04-27T20:37:12.719Z,7.80
2019-04-27T20:39:42.832Z,7.80
2019-04-27T20:42:12.532Z,7.80
2019-04-27T20:44:43.048Z,7.70
2019-04-27T20:47:13.187Z,7.70
2019-04-27T20:49:48.052Z,7.70
2019-04-27T20:52:40.600Z,7.70
2019-04-27T20:55:11.248Z,7.70
2019-04-27T20:57:45.012Z,7.70
2019-04-27T21:00:15.473Z,7.80
2019-04-27T21:02:47.179Z,7.80
2019-04-27T21:05:27.629Z,7.90
2019-04-27T21:08:11.618Z,7.90
2019-04-27T21:10:41.275Z,7.90
2019-04-27T21:13:16.144Z,7.90
2019-04-27T21:15:47.111Z,7.80
2019-04-27T21:18:19.038Z,7.80
2019-04-27T21:20:56.875Z,7.80
2019-04-27T21:23:26.986Z,7.80
2019-04-27T21:26:02.013Z,7.80
2019-04-27T21:28:36.362Z,7.70
2019-04-27T21:31:08.180Z,7.60
2019-04-27T21:33:36.714Z,7.60
2019-04-27T21:36:34.418Z,7.60
2019-04-27T21:39:09.271Z,7.70
2019-04-27T21:41:52.815Z,7.70
2019-04-27T21:44:23.583Z,7.80
2019-04-27T21:47:17.497Z,7.80
2019-04-27T21:49:56.027Z,7.90
2019-04-27T21:52:36.822Z,7.90
2019-04-27T21:55:14.095Z,7.80
2019-04-27T21:57:45.612Z,7.80
2019-04-27T22:00:54.875Z,7.70
2019-04-27T22:03:34.134Z,7.70
2019-04-27T22:06:09.194Z,7.60
2019-04-27T22:08:51.179Z,7.60
2019-04-27T22:11:21.749Z,7.70
2019-04-27T22:14:01.323Z,7.70
2019-04-27T22:16:36.873Z,7.70
2019-04-27T22:19:09.072Z,7.70
2019-04-27T22:21:43.179Z,7.70
2019-04-27T22:24:16.204Z,7.70
2019-04-27T22:26:44.891Z,7.70
2019-04-27T22:29:22.869Z,7.70
2019-04-27T22:31:51.739Z,7.70
2019-04-27T22:34:23.650Z,7.70
2019-04-27T22:36:52.714Z,7.70
2019-04-27T22:42:51.974Z,7.60
2019-04-27T22:48:26.618Z,7.60
2019-04-27T22:51:01.611Z,7.60
2019-04-27T22:53:47.303Z,7.60
2019-04-27T22:56:29.302Z,7.60
2019-04-27T22:59:08.526Z,7.60
2019-04-27T23:01:42.642Z,7.60
2019-04-27T23:07:21.267Z,7.50
2019-04-27T23:09:51.669Z,7.50
2019-04-27T23:12:45.516Z,7.50
2019-04-27T23:15:19.175Z,7.50
2019-04-27T23:18:17.257Z,7.50
2019-04-27T23:20:49.315Z,7.50
2019-04-27T23:23:22.239Z,7.40
2019-04-27T23:25:51.326Z,7.50
2019-04-27T23:28:31.184Z,7.50
2019-04-27T23:31:04.230Z,7.50
2019-04-27T23:33:52.802Z,7.50
2019-04-27T23:36:16.663Z,7.50
2019-04-27T23:38:52.835Z,7.50
2019-04-27T23:41:32.940Z,7.40
2019-04-27T23:44:21.340Z,7.40
2019-04-27T23:46:41.624Z,7.30
2019-04-27T23:49:20.348Z,7.30
2019-04-27T23:52:11.783Z,7.20
2019-04-27T23:54:53.250Z,7.20
2019-04-27T23:57:41.124Z,7.20
